Weather at Lamotte Beuvron Airfield [CLOSED]

Public forecast

Using degrees Celsius for public forecast. Weather courtesy of forecast.io.

Closest aviation weather report (METAR) to Lamotte Beuvron Airfield

Closest report is Orléans-Bricy (BA 123) Air Base, 21.9 nm (40.6 km) NNW. Retrieved 2021/01/25 06:30 UTC (0 seconds ago):

LFOJ 250630Z AUTO 25010KT 9999 SCT015 BKN022 OVC029 00/M00 Q1003 TEMPO 2900 -SHSN BKN015TCU

Closest aviation forecast (TAF) to Lamotte Beuvron Airfield

Forecast is more than 12 hours old.

Closest forecast is Orléans-Bricy (BA 123) Air Base, 21.9 nm (40.6 km) NNW. Retrieved 2021/01/24 16:27 UTC (14 hours ago):

TAF LFOJ 241602Z 2416/2515 CNL